Time;durP1;ratioP1;P1;durP2;ratioP2;P2;SDS_P1;SDS_P2;PMS_P1;PMS_P2;Temp;Humidity;BMP_temperature;BMP_pressure;BME280_temperature;BME280_humidity;BME280_pressure;Samples;Min_cycle;Max_cycle;Signal;HPM_P1;HPM_P2
2023/04/03 10:19:22;;;;;;;0.00;0.00;;;8.80;1.00;;;;;;5146000;27;20393;-86
2023/04/03 10:22:02;;;;;;;0.00;0.00;;;8.50;1.00;;;;;;5043732;28;20060;-85
2023/04/03 10:25:00;;;;;;;0.17;0.17;;;8.80;1.00;;;;;;5136222;27;20062;-84
2023/04/03 10:28:03;;;;;;;0.00;0.00;;;8.90;1.00;;;;;;5145486;27;20051;-85
2023/04/03 10:31:11;;;;;;;0.00;0.00;;;9.00;1.00;;;;;;5101767;27;20112;-84
2023/04/03 10:33:54;;;;;;;0.00;0.00;;;8.90;1.00;;;;;;5060474;28;20652;-85
2023/04/03 10:36:26;;;;;;;0.00;0.00;;;8.80;1.00;;;;;;5059715;28;20139;-85
2023/04/03 10:39:13;;;;;;;0.00;0.00;;;9.40;1.00;;;;;;5105499;27;20542;-85
2023/04/03 10:42:04;;;;;;;0.00;0.00;;;9.60;1.00;;;;;;5143672;27;20104;-86
2023/04/03 10:44:42;;;;;;;14.23;1.08;;;9.80;1.00;;;;;;5144664;27;20050;-85
2023/04/03 10:47:33;;;;;;;0.00;0.00;;;9.60;1.00;;;;;;5143551;27;20488;-85
2023/04/03 10:50:39;;;;;;;0.00;0.00;;;10.90;1.00;;;;;;5144015;27;20097;-85
2023/04/03 10:53:45;;;;;;;0.00;0.00;;;10.10;1.00;;;;;;5123856;27;20055;-85
2023/04/03 10:56:32;;;;;;;6.18;1.23;;;10.20;1.00;;;;;;5109811;28;20102;-85
2023/04/03 10:59:17;;;;;;;0.00;0.00;;;9.70;1.00;;;;;;5105495;28;20271;-84
2023/04/03 11:01:47;;;;;;;0.00;0.00;;;9.70;1.00;;;;;;5122362;28;20063;-85
2023/04/03 11:04:16;;;;;;;0.00;0.00;;;9.90;1.00;;;;;;5122630;28;20088;-85
2023/04/03 11:07:01;;;;;;;0.10;0.10;;;9.80;1.00;;;;;;5123637;28;20058;-85
2023/04/03 11:09:37;;;;;;;0.22;0.22;;;9.60;1.00;;;;;;5123377;28;20047;-85
2023/04/03 11:12:26;;;;;;;0.08;0.08;;;10.70;1.00;;;;;;5122373;28;20062;-85
2023/04/03 11:14:55;;;;;;;0.00;0.00;;;10.20;1.00;;;;;;5123386;28;20079;-84
2023/04/03 11:17:23;;;;;;;0.13;0.13;;;10.00;1.00;;;;;;5122372;28;21021;-84
2023/04/03 11:19:54;;;;;;;0.00;0.00;;;9.90;1.00;;;;;;5123221;28;20060;-84
2023/04/03 11:22:31;;;;;;;0.00;0.00;;;10.10;1.00;;;;;;5123165;28;20139;-84
2023/04/03 11:25:06;;;;;;;0.00;0.00;;;9.90;1.00;;;;;;5122450;28;20054;-85
2023/04/03 11:27:54;;;;;;;0.98;0.38;;;10.10;1.00;;;;;;5129412;27;20035;-84
2023/04/03 11:30:48;;;;;;;0.00;0.00;;;10.10;1.00;;;;;;5119703;27;20093;-84
2023/04/03 11:33:41;;;;;;;0.10;0.10;;;10.20;1.00;;;;;;5128861;27;20055;-85
2023/04/03 11:36:26;;;;;;;0.03;0.03;;;10.50;1.00;;;;;;5107959;27;20047;-84
2023/04/03 11:39:01;;;;;;;0.05;0.05;;;10.10;1.00;;;;;;5119896;27;20067;-84
2023/04/03 11:41:32;;;;;;;1.30;0.60;;;10.00;1.00;;;;;;5123924;27;20051;-84
2023/04/03 11:44:03;;;;;;;0.10;0.10;;;9.50;99.90;;;;;;5125324;27;20051;-84
2023/04/03 11:46:51;;;;;;;0.22;0.20;;;10.00;99.90;;;;;;5125455;27;20058;-84
2023/04/03 11:49:52;;;;;;;0.00;0.00;;;10.20;1.00;;;;;;5125546;27;20043;-84
2023/04/03 11:52:40;;;;;;;0.00;0.00;;;10.20;1.00;;;;;;5126391;27;20047;-84
2023/04/03 11:55:26;;;;;;;0.00;0.00;;;10.40;99.90;;;;;;5124642;27;20104;-84
2023/04/03 11:57:58;;;;;;;0.20;0.20;;;10.40;99.90;;;;;;5102507;27;20089;-84
2023/04/03 12:00:49;;;;;;;0.35;0.20;;;10.70;99.90;;;;;;5126112;27;20115;-84
2023/04/03 12:03:26;;;;;;;0.08;0.00;;;11.00;1.00;;;;;;5123467;27;20047;-84
2023/04/03 12:05:54;;;;;;;;;;;11.10;1.00;;;;;;5124557;27;20046;-84
2023/04/03 12:08:43;;;;;;;0.25;0.03;;;11.30;1.00;;;;;;5124281;27;19974;-84
2023/04/03 12:11:08;;;;;;;0.15;0.10;;;11.30;1.00;;;;;;5123911;27;20273;-84
2023/04/03 12:13:52;;;;;;;0.10;0.10;;;11.50;1.00;;;;;;5106972;27;20056;-85
2023/04/03 12:16:37;;;;;;;0.00;0.00;;;11.40;1.00;;;;;;5124116;27;20115;-84
2023/04/03 12:19:18;;;;;;;0.03;0.03;;;11.20;99.90;;;;;;5123552;27;20055;-84
2023/04/03 12:21:47;;;;;;;1.25;0.28;;;11.20;99.90;;;;;;5123632;27;20082;-84
2023/04/03 12:24:16;;;;;;;0.15;0.05;;;11.40;99.90;;;;;;5124673;27;20059;-84
2023/04/03 12:27:04;;;;;;;0.00;0.00;;;11.20;99.90;;;;;;5123810;27;20434;-85
2023/04/03 12:29:38;;;;;;;0.00;0.00;;;11.30;99.90;;;;;;5125060;27;20476;-85
2023/04/03 12:32:23;;;;;;;0.32;0.20;;;11.50;99.90;;;;;;5124632;27;20035;-85
2023/04/03 12:34:57;;;;;;;0.00;0.00;;;12.10;1.00;;;;;;5124651;27;20055;-85
2023/04/03 12:37:48;;;;;;;0.00;0.00;;;12.10;1.00;;;;;;5124945;27;20408;-84
2023/04/03 12:40:33;;;;;;;0.10;0.10;;;12.40;1.00;;;;;;5123873;27;20070;-84
2023/04/03 12:43:09;;;;;;;0.13;0.13;;;12.90;1.00;;;;;;5124817;27;20047;-85
2023/04/03 12:45:56;;;;;;;0.00;0.00;;;13.40;1.00;;;;;;5124129;27;20050;-84
2023/04/03 12:48:27;;;;;;;1.02;0.95;;;13.30;1.00;;;;;;5124325;27;20083;-84
2023/04/03 12:50:54;;;;;;;2.05;0.10;;;13.00;1.00;;;;;;5124311;27;20092;-84
2023/04/03 12:53:25;;;;;;;0.00;0.00;;;12.80;1.00;;;;;;5123929;27;20126;-85
2023/04/03 12:56:18;;;;;;;1.27;0.73;;;12.90;1.00;;;;;;5124257;27;20096;-84
2023/04/03 12:58:44;;;;;;;0.00;0.00;;;13.20;1.00;;;;;;5124008;27;20103;-85
2023/04/03 13:01:13;;;;;;;0.00;0.00;;;13.30;1.00;;;;;;5124039;27;20035;-85
2023/04/03 13:03:44;;;;;;;0.10;0.10;;;13.40;1.00;;;;;;5123934;27;20427;-85
2023/04/03 13:06:43;;;;;;;0.05;0.03;;;13.40;1.00;;;;;;5122265;27;20051;-85
2023/04/03 13:09:22;;;;;;;0.00;0.00;;;13.70;1.00;;;;;;5121891;27;20043;-84
2023/04/03 13:11:49;;;;;;;0.47;0.35;;;13.40;1.00;;;;;;5123937;27;20051;-85
2023/04/03 13:14:18;;;;;;;1.55;0.68;;;12.80;1.00;;;;;;5119966;27;20042;-85
2023/04/03 13:17:16;;;;;;;0.00;0.00;;;12.70;1.00;;;;;;5126556;27;20055;-85
2023/04/03 13:19:46;;;;;;;0.35;0.32;;;12.70;1.00;;;;;;5114876;27;20559;-84
2023/04/03 13:22:30;;;;;;;0.20;0.20;;;12.90;1.00;;;;;;5123979;27;20130;-84
2023/04/03 13:24:58;;;;;;;0.00;0.00;;;13.60;1.00;;;;;;5123170;27;20047;-84
2023/04/03 13:27:25;;;;;;;0.05;0.03;;;13.20;1.00;;;;;;5107376;27;20090;-84
2023/04/03 13:29:58;;;;;;;0.00;0.00;;;12.60;1.00;;;;;;5102819;28;20496;-84
2023/04/03 13:32:26;;;;;;;0.30;0.30;;;12.30;1.00;;;;;;5102523;28;20047;-84
2023/04/03 13:34:52;;;;;;;0.05;0.05;;;12.50;1.00;;;;;;5102689;28;20046;-84
2023/04/03 13:37:29;;;;;;;0.00;0.00;;;13.30;1.00;;;;;;5103325;28;20052;-84
2023/04/03 13:40:07;;;;;;;0.00;0.00;;;12.60;1.00;;;;;;5103143;28;20047;-84
2023/04/03 13:42:36;;;;;;;0.15;0.10;;;12.80;1.00;;;;;;5102939;28;20138;-84
2023/04/03 13:45:20;;;;;;;0.00;0.00;;;13.30;1.00;;;;;;5103189;28;20050;-85
2023/04/03 13:47:50;;;;;;;0.20;0.20;;;14.50;1.00;;;;;;5103216;28;20058;-86
2023/04/03 13:50:24;;;;;;;0.40;0.25;;;13.20;99.90;;;;;;5103155;28;20497;-85
2023/04/03 13:53:12;;;;;;;0.40;0.22;;;11.90;99.90;;;;;;5102428;28;20493;-86
2023/04/03 13:55:53;;;;;;;0.22;0.22;;;12.50;99.90;;;;;;5103267;28;20048;-86
2023/04/03 13:58:28;;;;;;;0.55;0.32;;;12.40;99.90;;;;;;5084023;28;20465;-85
2023/04/03 14:01:17;;;;;;;0.38;0.38;;;12.60;99.90;;;;;;5102847;28;20126;-86
2023/04/03 14:03:59;;;;;;;0.00;0.00;;;12.50;99.90;;;;;;5102655;28;20044;-86
2023/04/03 14:06:25;;;;;;;1.35;0.52;;;12.80;99.90;;;;;;5102880;28;20657;-85
2023/04/03 14:08:51;;;;;;;0.20;0.15;;;13.40;1.00;;;;;;5102036;28;20039;-85
2023/04/03 14:11:30;;;;;;;0.00;0.00;;;14.00;1.00;;;;;;5102183;28;20047;-85
2023/04/03 14:14:00;;;;;;;0.00;0.00;;;13.90;1.00;;;;;;5101922;28;20079;-83
2023/04/03 14:16:30;;;;;;;0.13;0.10;;;13.40;1.00;;;;;;5102030;28;20303;-83
2023/04/03 14:18:56;;;;;;;0.00;0.00;;;13.30;1.00;;;;;;5100813;28;20119;-83
2023/04/03 14:21:23;;;;;;;0.00;0.00;;;13.90;1.00;;;;;;5102248;28;20054;-83
2023/04/03 14:23:50;;;;;;;0.10;0.10;;;13.90;1.00;;;;;;5100560;28;20100;-84
2023/04/03 14:26:20;;;;;;;0.00;0.00;;;13.80;1.00;;;;;;5102797;28;20047;-85
2023/04/03 14:28:47;;;;;;;0.22;0.20;;;13.40;1.00;;;;;;5100472;28;20054;-84
2023/04/03 14:31:15;;;;;;;0.35;0.20;;;13.20;1.00;;;;;;5102304;28;20122;-84
2023/04/03 14:33:41;;;;;;;0.10;0.10;;;12.50;99.90;;;;;;5101017;28;20513;-85
2023/04/03 14:36:16;;;;;;;0.10;0.10;;;12.80;1.00;;;;;;5101917;28;20047;-85
2023/04/03 14:38:46;;;;;;;0.10;0.08;;;13.20;1.00;;;;;;5101817;28;20097;-85
2023/04/03 14:41:16;;;;;;;0.00;0.00;;;13.80;1.00;;;;;;5102269;28;20036;-85
2023/04/03 14:43:43;;;;;;;0.38;0.35;;;13.70;1.00;;;;;;5101824;28;20075;-85
2023/04/03 14:46:19;;;;;;;0.00;0.00;;;13.60;1.00;;;;;;5100594;28;20443;-85
2023/04/03 14:48:45;;;;;;;0.00;0.00;;;13.80;1.00;;;;;;5101765;28;20035;-86
2023/04/03 14:51:12;;;;;;;0.28;0.10;;;13.60;1.00;;;;;;5101894;28;20993;-86
2023/04/03 14:53:40;;;;;;;1.27;0.08;;;13.70;1.00;;;;;;5112418;28;20057;-85
2023/04/03 14:56:25;;;;;;;0.00;0.00;;;13.90;1.00;;;;;;5122834;28;20409;-85
2023/04/03 14:58:56;;;;;;;0.30;0.15;;;13.70;1.00;;;;;;5122670;28;20070;-86
2023/04/03 15:01:21;;;;;;;0.17;0.13;;;13.80;1.00;;;;;;5122878;28;20043;-86
2023/04/03 15:03:47;;;;;;;0.43;0.20;;;14.40;1.00;;;;;;5122590;27;20043;-86
2023/04/03 15:06:14;;;;;;;1.85;0.32;;;14.10;1.00;;;;;;5126588;27;20091;-86
2023/04/03 15:08:42;;;;;;;1.20;0.22;;;13.20;1.00;;;;;;5125814;27;20393;-86
2023/04/03 15:11:09;;;;;;;0.13;0.13;;;13.00;99.90;;;;;;5127002;27;20096;-85
2023/04/03 15:13:35;;;;;;;0.00;0.00;;;13.50;99.90;;;;;;5126522;27;20523;-84
2023/04/03 15:16:01;;;;;;;0.20;0.13;;;13.40;1.00;;;;;;5127223;27;20054;-84
2023/04/03 15:18:29;;;;;;;0.45;0.25;;;14.20;1.00;;;;;;5126083;27;20492;-84
2023/04/03 15:20:55;;;;;;;0.20;0.20;;;13.30;1.00;;;;;;5127026;27;20047;-84
2023/04/03 15:23:25;;;;;;;0.00;0.00;;;13.20;1.00;;;;;;5126309;27;20567;-84
2023/04/03 15:25:52;;;;;;;2.40;1.08;;;14.40;1.00;;;;;;5125299;27;20466;-84
2023/04/03 15:28:32;;;;;;;0.10;0.10;;;13.60;99.90;;;;;;5125070;27;20076;-84
2023/04/03 15:30:58;;;;;;;0.10;0.10;;;12.50;99.90;;;;;;5125903;27;20047;-83
2023/04/03 15:33:24;;;;;;;0.00;0.00;;;13.00;99.90;;;;;;5125586;27;20549;-84
2023/04/03 15:35:50;;;;;;;0.00;0.00;;;12.90;99.90;;;;;;5126055;27;20077;-83
2023/04/03 15:38:16;;;;;;;0.00;0.00;;;12.90;99.90;;;;;;5125435;27;20074;-83
2023/04/03 15:40:43;;;;;;;0.03;0.03;;;12.90;99.90;;;;;;5126318;27;20047;-84
2023/04/03 15:43:10;;;;;;;0.00;0.00;;;12.90;99.90;;;;;;5125765;27;20077;-84
2023/04/03 15:45:36;;;;;;;0.00;0.00;;;12.80;99.90;;;;;;5125897;27;20050;-84
2023/04/03 15:48:04;;;;;;;0.10;0.10;;;13.00;1.00;;;;;;5125555;27;20126;-86
2023/04/03 15:50:30;;;;;;;0.00;0.00;;;13.00;1.00;;;;;;5116239;27;20146;-84
2023/04/03 15:52:57;;;;;;;0.10;0.10;;;13.40;99.90;;;;;;5107346;27;20083;-85
2023/04/03 15:55:27;;;;;;;0.00;0.00;;;12.60;99.90;;;;;;5105441;28;20779;-84
2023/04/03 15:57:53;;;;;;;0.00;0.00;;;12.50;99.90;;;;;;5104780;28;20349;-84
2023/04/03 16:00:28;;;;;;;0.80;0.45;;;12.70;99.90;;;;;;5107011;28;20055;-84
2023/04/03 16:03:01;;;;;;;0.00;0.00;;;13.10;99.90;;;;;;5108461;28;20485;-84
2023/04/03 16:05:26;;;;;;;0.00;0.00;;;14.00;1.00;;;;;;5108811;28;20075;-85
2023/04/03 16:07:53;;;;;;;0.00;0.00;;;12.30;99.90;;;;;;5106939;28;20595;-84
2023/04/03 16:10:19;;;;;;;0.10;0.10;;;12.30;99.90;;;;;;5109198;28;20111;-84
2023/04/03 16:12:45;;;;;;;0.00;0.00;;;12.20;99.90;;;;;;5108525;28;20061;-85
2023/04/03 16:15:12;;;;;;;0.13;0.13;;;12.60;99.90;;;;;;5108535;28;20047;-84
2023/04/03 16:17:39;;;;;;;0.00;0.00;;;11.60;99.90;;;;;;5106278;28;20061;-85
2023/04/03 16:20:06;;;;;;;0.15;0.08;;;11.80;99.90;;;;;;5108189;28;20132;-84
2023/04/03 16:22:33;;;;;;;0.28;0.15;;;11.30;99.90;;;;;;5107572;28;20105;-89
2023/04/03 16:24:59;;;;;;;0.00;0.00;;;11.80;99.90;;;;;;5107779;28;20539;-88
2023/04/03 16:27:27;;;;;;;0.00;0.00;;;10.90;99.90;;;;;;5126562;27;20047;-88
2023/04/03 16:29:57;;;;;;;0.00;0.00;;;11.00;99.90;;;;;;5129712;27;20055;-88
2023/04/03 16:32:25;;;;;;;0.10;0.10;;;11.20;99.90;;;;;;5128641;27;20039;-86
2023/04/03 16:34:51;;;;;;;0.00;0.00;;;11.20;99.90;;;;;;5128174;27;20121;-86
2023/04/03 16:37:17;;;;;;;0.00;0.00;;;11.10;99.90;;;;;;5129622;27;20047;-86
2023/04/03 16:39:43;;;;;;;0.00;0.00;;;11.70;99.90;;;;;;5128182;27;20047;-86
2023/04/03 16:42:09;;;;;;;0.05;0.05;;;10.90;99.90;;;;;;5128194;27;20043;-86
2023/04/03 16:44:36;;;;;;;0.00;0.00;;;10.80;99.90;;;;;;5128013;27;20083;-86
2023/04/03 16:47:02;;;;;;;0.40;0.17;;;11.00;99.90;;;;;;5128135;27;20082;-86
2023/04/03 16:49:32;;;;;;;0.55;0.55;;;10.70;99.90;;;;;;5126761;27;20047;-86
2023/04/03 16:51:58;;;;;;;0.08;0.08;;;10.60;99.90;;;;;;5128120;27;20059;-86
2023/04/03 16:54:24;;;;;;;0.40;0.20;;;10.80;99.90;;;;;;5128535;27;20109;-86
2023/04/03 16:56:51;;;;;;;0.00;0.00;;;10.80;99.90;;;;;;5128072;27;20527;-86
2023/04/03 16:59:17;;;;;;;0.22;0.22;;;11.40;99.90;;;;;;5126303;27;20061;-86
2023/04/03 17:01:46;;;;;;;0.52;0.28;;;9.90;99.90;;;;;;5123940;27;20117;-87
2023/04/03 17:04:12;;;;;;;0.03;0.03;;;9.40;99.90;;;;;;5122228;27;20356;-86
2023/04/03 17:06:38;;;;;;;0.00;0.00;;;8.90;99.90;;;;;;5125001;27;20039;-86
2023/04/03 17:09:04;;;;;;;0.63;0.57;;;8.40;99.90;;;;;;5122779;27;20047;-86
2023/04/03 17:11:31;;;;;;;1.08;0.55;;;8.00;99.90;;;;;;5122419;27;20035;-86
2023/04/03 17:13:57;;;;;;;0.17;0.15;;;7.70;99.90;;;;;;5123575;27;20120;-86
2023/04/03 17:16:23;;;;;;;0.10;0.10;;;7.40;99.90;;;;;;5122213;27;20510;-86
2023/04/03 17:18:49;;;;;;;0.00;0.00;;;7.20;99.90;;;;;;5124810;27;20042;-85
2023/04/03 17:21:16;;;;;;;0.00;0.00;;;7.00;99.90;;;;;;5125802;27;20107;-85
2023/04/03 17:23:46;;;;;;;0.28;0.28;;;6.90;99.90;;;;;;5123138;27;20571;-85
2023/04/03 17:26:11;;;;;;;0.20;0.20;;;6.70;99.90;;;;;;5121675;27;20038;-86
2023/04/03 17:28:39;;;;;;;0.28;0.28;;;7.10;99.90;;;;;;5108398;27;20057;-86
2023/04/03 17:31:05;;;;;;;0.08;0.08;;;6.40;99.90;;;;;;5122987;27;20073;-86
2023/04/03 17:33:32;;;;;;;0.00;0.00;;;6.30;99.90;;;;;;5122554;27;20039;-85
2023/04/03 17:36:01;;;;;;;0.20;0.13;;;6.20;99.90;;;;;;5122180;27;20051;-86
2023/04/03 17:38:27;;;;;;;0.00;0.00;;;6.10;99.90;;;;;;5124255;27;20066;-86
2023/04/03 17:40:57;;;;;;;0.30;0.30;;;6.00;99.90;;;;;;5124617;27;20053;-86
2023/04/03 17:43:27;;;;;;;0.10;0.10;;;5.90;99.90;;;;;;5125132;27;20457;-86
2023/04/03 17:45:54;;;;;;;2.53;0.43;;;6.10;99.90;;;;;;5123645;27;20050;-86
2023/04/03 17:48:20;;;;;;;0.00;0.00;;;5.80;1.00;;;;;;5122272;27;20123;-85
2023/04/03 17:50:46;;;;;;;1.10;0.85;;;5.70;1.00;;;;;;5126277;27;20488;-86
2023/04/03 17:53:13;;;;;;;0.00;0.00;;;5.60;1.00;;;;;;5123254;27;20043;-86
2023/04/03 17:55:39;;;;;;;0.22;0.22;;;7.10;1.00;;;;;;5123443;27;20446;-86
2023/04/03 17:58:05;;;;;;;0.00;0.00;;;5.40;1.00;;;;;;5122991;27;20092;-86
2023/04/03 18:00:33;;;;;;;0.00;0.00;;;5.40;1.00;;;;;;5122768;27;20073;-85
2023/04/03 18:02:59;;;;;;;0.00;0.00;;;5.30;1.00;;;;;;5122010;27;20394;-86
2023/04/03 18:05:29;;;;;;;0.00;0.00;;;5.20;1.00;;;;;;5121939;27;20047;-85
2023/04/03 18:07:56;;;;;;;0.00;0.00;;;5.10;1.00;;;;;;5121735;27;20078;-85
2023/04/03 18:10:22;;;;;;;0.00;0.00;;;5.00;1.00;;;;;;5122076;27;20055;-85
2023/04/03 18:12:48;;;;;;;0.93;0.63;;;4.80;3.50;;;;;;5121597;27;20055;-86
2023/04/03 18:15:14;;;;;;;0.00;0.00;;;4.80;20.10;;;;;;5121341;27;20055;-86
2023/04/03 18:17:39;;;;;;;0.47;0.47;;;4.60;73.50;;;;;;5122464;27;20159;-85
2023/04/03 18:20:06;;;;;;;0.57;0.57;;;4.50;81.30;;;;;;5121731;28;20123;-85
2023/04/03 18:22:32;;;;;;;0.05;0.05;;;4.50;99.00;;;;;;5122989;27;20047;-85
2023/04/03 18:24:58;;;;;;;0.00;0.00;;;4.40;99.90;;;;;;5122357;27;20520;-86
2023/04/03 18:27:25;;;;;;;0.00;0.00;;;4.30;99.90;;;;;;5122669;27;20046;-85
2023/04/03 18:29:55;;;;;;;0.00;0.00;;;4.30;99.90;;;;;;5121769;28;20492;-85
2023/04/03 18:32:21;;;;;;;0.13;0.10;;;4.20;99.90;;;;;;5122827;28;20130;-85
2023/04/03 18:34:47;;;;;;;0.00;0.00;;;4.70;99.90;;;;;;5121119;28;20163;-86
2023/04/03 18:37:14;;;;;;;0.00;0.00;;;4.10;99.90;;;;;;5120904;27;20043;-86
2023/04/03 18:39:39;;;;;;;0.00;0.00;;;4.00;99.90;;;;;;5125656;27;20417;-85
2023/04/03 18:42:18;;;;;;;0.30;0.30;;;4.00;99.90;;;;;;5124985;27;20046;-85
2023/04/03 18:44:46;;;;;;;0.00;0.00;;;3.90;99.90;;;;;;5124813;27;20051;-85
2023/04/03 18:47:12;;;;;;;0.00;0.00;;;3.80;99.90;;;;;;5108470;27;20053;-85
2023/04/03 18:49:40;;;;;;;0.00;0.00;;;3.80;99.90;;;;;;5131511;27;20047;-86
2023/04/03 18:52:05;;;;;;;0.00;0.00;;;3.70;99.90;;;;;;5116423;27;20054;-85
2023/04/03 18:54:32;;;;;;;0.00;0.00;;;3.60;99.90;;;;;;5133507;27;20047;-86
2023/04/03 18:56:58;;;;;;;0.00;0.00;;;3.60;99.90;;;;;;5135372;27;20050;-85
2023/04/03 18:59:24;;;;;;;0.47;0.40;;;3.50;1.00;;;;;;5134843;27;20371;-86
2023/04/03 19:01:50;;;;;;;0.00;0.00;;;3.50;1.00;;;;;;5133323;27;20074;-86
2023/04/03 19:04:16;;;;;;;0.00;0.00;;;3.40;1.00;;;;;;5135456;27;20430;-86
2023/04/03 19:06:43;;;;;;;0.00;0.00;;;3.30;21.30;;;;;;5116532;27;20090;-86
2023/04/03 19:09:10;;;;;;;10.23;2.13;;;3.30;99.90;;;;;;5132712;27;20043;-86
2023/04/03 19:11:35;;;;;;;0.00;0.00;;;3.10;99.90;;;;;;5132848;27;20043;-86
2023/04/03 19:14:01;;;;;;;0.10;0.10;;;3.10;99.90;;;;;;5133891;27;20050;-86
2023/04/03 19:16:27;;;;;;;0.00;0.00;;;3.00;99.90;;;;;;5114439;27;20039;-86
2023/04/03 19:18:53;;;;;;;0.15;0.15;;;3.00;1.00;;;;;;5132885;27;20118;-86
2023/04/03 19:21:19;;;;;;;0.00;0.00;;;2.90;1.00;;;;;;5133374;27;20046;-86
2023/04/03 19:23:45;;;;;;;0.00;0.00;;;2.90;1.00;;;;;;5115373;27;20075;-85
2023/04/03 19:26:12;;;;;;;0.25;0.25;;;3.00;99.90;;;;;;5114551;27;20407;-85
2023/04/03 19:28:40;;;;;;;0.10;0.10;;;2.90;99.90;;;;;;5133587;27;20050;-86
2023/04/03 19:31:14;;;;;;;0.05;0.05;;;2.80;99.90;;;;;;5133152;27;20080;-85
2023/04/03 19:33:44;;;;;;;0.00;0.00;;;2.70;99.90;;;;;;5132218;27;20054;-86
2023/04/03 19:36:10;;;;;;;0.00;0.00;;;2.70;99.90;;;;;;5132717;27;20047;-86
2023/04/03 19:38:39;;;;;;;0.00;0.00;;;2.60;99.90;;;;;;5114165;27;20042;-85
2023/04/03 19:41:14;;;;;;;0.10;0.10;;;2.50;29.80;;;;;;5131529;27;20047;-86
2023/04/03 19:43:41;;;;;;;0.00;0.00;;;3.00;99.90;;;;;;5133133;27;20051;-86
2023/04/03 19:46:07;;;;;;;0.00;0.00;;;2.40;99.90;;;;;;5113862;27;20051;-86
2023/04/03 19:48:33;;;;;;;0.35;0.35;;;2.40;99.90;;;;;;5131379;27;20035;-86
2023/04/03 19:51:04;;;;;;;0.00;0.00;;;2.50;1.00;;;;;;5131102;27;20104;-85
2023/04/03 19:53:30;;;;;;;0.00;0.00;;;2.40;99.90;;;;;;5114896;27;20138;-86
2023/04/03 19:55:56;;;;;;;0.00;0.00;;;2.40;99.90;;;;;;5120317;27;20114;-86
2023/04/03 19:58:26;;;;;;;0.20;0.13;;;2.40;99.90;;;;;;5113586;27;20047;-86
2023/04/03 20:00:52;;;;;;;0.52;0.52;;;2.30;1.00;;;;;;5131250;27;20523;-88
2023/04/03 20:03:18;;;;;;;1.95;0.52;;;2.30;1.00;;;;;;5131873;27;20043;-87
2023/04/03 20:05:45;;;;;;;0.00;0.00;;;2.30;99.90;;;;;;5131974;27;20047;-87
2023/04/03 20:08:11;;;;;;;0.10;0.10;;;2.20;8.60;;;;;;5113146;27;20035;-86
2023/04/03 20:10:39;;;;;;;0.00;0.00;;;2.10;99.90;;;;;;5113171;27;20043;-87
2023/04/03 20:13:08;;;;;;;0.75;0.75;;;2.20;1.00;;;;;;5131567;27;20051;-87
2023/04/03 20:15:39;;;;;;;0.00;0.00;;;2.70;99.90;;;;;;5130600;27;20043;-87
2023/04/03 20:18:06;;;;;;;0.25;0.25;;;2.10;99.90;;;;;;5130895;27;20520;-87
2023/04/03 20:20:32;;;;;;;1.45;0.65;;;2.90;1.00;;;;;;5131725;27;20086;-86
2023/04/03 20:22:59;;;;;;;0.88;0.85;;;2.20;99.90;;;;;;5111458;27;20164;-86
2023/04/03 20:25:24;;;;;;;0.20;0.20;;;2.20;99.90;;;;;;5131485;27;20047;-86
2023/04/03 20:27:53;;;;;;;0.00;0.00;;;2.10;99.90;;;;;;5129576;27;20181;-86
2023/04/03 20:30:19;;;;;;;0.00;0.00;;;2.00;1.00;;;;;;5121183;27;20054;-86
2023/04/03 20:32:45;;;;;;;0.10;0.10;;;2.00;1.00;;;;;;5117526;27;20043;-86
2023/04/03 20:35:10;;;;;;;0.00;0.00;;;3.00;99.90;;;;;;5122039;27;20448;-87
2023/04/03 20:37:41;;;;;;;0.00;0.00;;;1.90;99.90;;;;;;5131617;27;20039;-86
2023/04/03 20:40:08;;;;;;;0.00;0.00;;;1.90;99.90;;;;;;5115249;27;20154;-85
2023/04/03 20:42:34;;;;;;;0.00;0.00;;;1.80;99.90;;;;;;5114606;27;20183;-86
2023/04/03 20:45:00;;;;;;;0.00;0.00;;;1.80;99.90;;;;;;5112946;28;20431;-85
2023/04/03 20:47:26;;;;;;;0.10;0.10;;;1.80;1.00;;;;;;5112912;28;20054;-85
2023/04/03 20:49:52;;;;;;;0.00;0.00;;;1.20;99.90;;;;;;5109207;27;20908;-85
2023/04/03 20:52:18;;;;;;;0.10;0.10;;;1.70;99.90;;;;;;5122430;27;20134;-86
2023/04/03 20:54:46;;;;;;;0.00;0.00;;;1.80;99.90;;;;;;5115860;27;20117;-86
2023/04/03 20:57:13;;;;;;;0.00;0.00;;;1.70;99.90;;;;;;5126074;27;20042;-86
2023/04/03 20:59:41;;;;;;;0.00;0.00;;;2.20;99.90;;;;;;5105797;28;20040;-86
2023/04/03 21:02:07;;;;;;;0.50;0.50;;;1.40;1.00;;;;;;5102316;28;20047;-86
2023/04/03 21:04:44;;;;;;;0.00;0.00;;;2.40;47.10;;;;;;5107971;27;20036;-86
2023/04/03 21:08:09;;;;;;;0.00;0.00;;;1.00;62.00;;;;;;5123308;27;20866;-85
2023/04/03 21:11:11;;;;;;;0.43;0.43;;;1.20;82.60;;;;;;5126176;27;20438;-86
2023/04/03 21:14:16;;;;;;;0.00;0.00;;;1.00;13.50;;;;;;5095745;28;20057;-86
2023/04/03 21:16:42;;;;;;;0.00;0.00;;;0.90;1.00;;;;;;5112958;28;20412;-85
2023/04/03 21:19:09;;;;;;;0.73;0.73;;;0.70;1.00;;;;;;5117317;27;20047;-86
2023/04/03 21:21:37;;;;;;;0.10;0.10;;;0.60;99.90;;;;;;5123797;27;20051;-86
2023/04/03 21:24:11;;;;;;;0.10;0.10;;;0.60;99.90;;;;;;5122865;27;20043;-86
2023/04/03 21:26:38;;;;;;;0.00;0.00;;;0.60;99.90;;;;;;5135243;27;20047;-86
2023/04/03 21:29:07;;;;;;;0.00;0.00;;;0.60;99.90;;;;;;5135459;27;20043;-86
2023/04/03 21:31:46;;;;;;;0.00;0.00;;;0.50;99.90;;;;;;5134990;27;20050;-86
2023/04/03 21:34:14;;;;;;;0.17;0.17;;;0.50;99.90;;;;;;5135023;27;20039;-86
2023/04/03 21:36:40;;;;;;;0.05;0.05;;;0.40;99.90;;;;;;5135267;27;20062;-85
2023/04/03 21:39:06;;;;;;;0.15;0.15;;;0.40;99.90;;;;;;5113497;28;20058;-86
2023/04/03 21:41:32;;;;;;;0.65;0.65;;;0.30;99.90;;;;;;5128570;27;20437;-85
2023/04/03 21:43:57;;;;;;;0.32;0.32;;;0.20;99.90;;;;;;5134617;27;20050;-85
2023/04/03 21:46:23;;;;;;;0.10;0.10;;;0.10;99.90;;;;;;5135936;27;20683;-86
2023/04/03 21:48:49;;;;;;;0.10;0.10;;;-0.10;99.90;;;;;;5135030;27;20047;-86
2023/04/03 21:51:18;;;;;;;0.00;0.00;;;-0.20;99.90;;;;;;5134325;27;20043;-86
2023/04/03 21:53:44;;;;;;;0.10;0.10;;;0.60;99.90;;;;;;5134495;27;20065;-86
2023/04/03 21:56:10;;;;;;;0.10;0.10;;;0.90;99.90;;;;;;5133717;27;20074;-86
2023/04/03 21:58:35;;;;;;;0.00;0.00;;;-0.50;99.90;;;;;;5135201;27;20039;-86
2023/04/03 22:01:09;;;;;;;0.00;0.00;;;-0.60;99.90;;;;;;5134371;27;20043;-85
2023/04/03 22:03:36;;;;;;;0.20;0.20;;;-0.60;99.90;;;;;;5135031;27;20540;-85
2023/04/03 22:06:29;;;;;;;0.10;0.10;;;-0.70;99.90;;;;;;5116707;27;20047;-85
2023/04/03 22:08:57;;;;;;;0.00;0.00;;;-0.80;99.90;;;;;;5131672;27;20655;-85
2023/04/03 22:11:26;;;;;;;0.05;0.05;;;-0.90;99.90;;;;;;5134760;27;20484;-85
2023/04/03 22:13:53;;;;;;;1.08;0.85;;;-1.10;99.90;;;;;;5134212;27;20412;-86
2023/04/03 22:16:19;;;;;;;0.00;0.00;;;-1.20;99.90;;;;;;5134923;27;20070;-85
2023/04/03 22:18:45;;;;;;;0.10;0.10;;;-1.20;99.90;;;;;;5135048;27;20459;-86
2023/04/03 22:21:11;;;;;;;0.00;0.00;;;-1.20;99.90;;;;;;5133419;28;20085;-85
2023/04/03 22:23:37;;;;;;;0.00;0.00;;;-0.80;99.90;;;;;;5133157;28;20092;-85
2023/04/03 22:26:08;;;;;;;0.10;0.10;;;-1.30;99.90;;;;;;5115674;28;20123;-85
2023/04/03 22:28:45;;;;;;;0.00;0.00;;;-1.30;99.90;;;;;;5134670;27;20054;-85
2023/04/03 22:31:15;;;;;;;0.00;0.00;;;-0.90;99.90;;;;;;5133644;28;20055;-85
2023/04/03 22:33:43;;;;;;;0.60;0.43;;;-1.20;99.90;;;;;;5117133;28;20059;-85
2023/04/03 22:36:10;;;;;;;0.00;0.00;;;-1.30;99.90;;;;;;5135761;27;20058;-85
2023/04/03 22:38:37;;;;;;;0.15;0.15;;;-1.40;99.90;;;;;;5133310;28;20047;-85
2023/04/03 22:41:05;;;;;;;0.00;0.00;;;-1.40;99.90;;;;;;5134000;28;20059;-85
2023/04/03 22:43:33;;;;;;;0.15;0.15;;;-1.40;99.90;;;;;;5134474;28;20050;-86
2023/04/03 22:46:00;;;;;;;0.05;0.05;;;-1.50;99.90;;;;;;5135219;27;20077;-86
2023/04/03 22:48:26;;;;;;;0.00;0.00;;;-1.40;99.90;;;;;;5135526;27;20093;-86
2023/04/03 22:50:54;;;;;;;0.10;0.10;;;-1.40;99.90;;;;;;5133783;28;20651;-85
2023/04/03 22:53:23;;;;;;;0.35;0.35;;;-1.50;99.90;;;;;;5116070;28;20059;-85
2023/04/03 22:55:57;;;;;;;0.00;0.00;;;-1.50;99.90;;;;;;5134104;28;20050;-86
2023/04/03 22:58:25;;;;;;;0.10;0.10;;;-1.60;99.90;;;;;;5133877;28;20039;-86
2023/04/03 23:00:55;;;;;;;0.00;0.00;;;-1.60;99.90;;;;;;5115295;27;20047;-86
2023/04/03 23:03:24;;;;;;;0.10;0.10;;;-1.70;99.90;;;;;;5114348;28;20530;-86
2023/04/03 23:05:50;;;;;;;0.03;0.03;;;-1.30;99.90;;;;;;5114381;28;20055;-86
2023/04/03 23:08:17;;;;;;;0.00;0.00;;;-1.80;99.90;;;;;;5115897;28;20062;-86
2023/04/03 23:10:43;;;;;;;0.45;0.45;;;-1.90;99.90;;;;;;5115237;28;20114;-86
2023/04/03 23:13:10;;;;;;;0.10;0.10;;;-1.70;99.90;;;;;;5124140;28;20334;-86
2023/04/03 23:15:35;;;;;;;0.00;0.00;;;-1.40;99.90;;;;;;5134593;28;20104;-86
2023/04/03 23:18:01;;;;;;;0.10;0.10;;;-0.30;99.90;;;;;;5134302;28;20055;-86
2023/04/03 23:20:27;;;;;;;0.03;0.03;;;-1.20;99.90;;;;;;5117569;28;20089;-86
2023/04/03 23:22:53;;;;;;;0.10;0.10;;;-1.30;99.90;;;;;;5136203;27;20047;-86
2023/04/03 23:25:19;;;;;;;0.10;0.10;;;-0.30;99.90;;;;;;5138312;27;20103;-86
2023/04/03 23:27:52;;;;;;;0.00;0.00;;;-1.50;99.90;;;;;;5139518;27;20583;-86
2023/04/03 23:30:19;;;;;;;0.10;0.10;;;-0.30;99.90;;;;;;5120898;27;20043;-86
2023/04/03 23:32:46;;;;;;;0.10;0.10;;;-1.50;99.90;;;;;;5138305;27;20051;-87
2023/04/03 23:35:12;;;;;;;0.10;0.10;;;0.00;99.90;;;;;;5120428;27;20104;-86